Terminal Aerodrome Forecast
Issued by NWS Atlanta, GA

Home | Current Version | Previous Version | Text Only | Print | Product List | Glossary On
Versions: 1 2 3 4 5 6 7 8 9 10 11 12 13 14 15 16 17 18 19 20 21 22
000
FTUS42 KFFC 181740
TAFMCN
TAF
KMCN 181740Z 1818/1918 27010KT P6SM -SHRA BKN025 BKN035
     FM181900 29010KT P6SM SCT025 BKN040
     FM190000 28005KT P6SM SCT030 BKN250
     FM191100 VRB02KT P6SM SCT015 SCT120
     FM191400 11005KT P6SM BKN015 BKN150
     FM191700 14007KT P6SM BKN025=

USA.gov is the U.S. government's official web portal to all federal, state and local government web resources and services.